Evanston Regional Hospital, WY

1:11 PM MDT on September 23, 2014 (GMT -0600)
HADS EVANSTON 1E WY US NWS | Change Station
CLOSE
Current Station
Personal Weather Station
Location: Evanston, WY
Elevation: 6825 ft
Nearby Weather Stations

Elev 6825 ft 41.26 °N, 110.95 °W | Updated 56 minutes ago

Partly Cloudy
Partly Cloudy
65 °F
Feels Like 65 °F
N
5
Wind Variable Wind from SSW
Gusts 8.0 mph

Today
High -- | Low -- °F
--% Chance of Precip.
Yesterday
High -- | Low -- °F
Precip. -- in
7:12 AM 7:19 PM
Waning Crescent, 0% visible
Pressure 30.06 in
Visibility 10.0 miles
Clouds Few 5500 ft
Dew Point 45 °F
Humidity 48%
Rainfall 0.00 in
Snow Depth 0 in , 0 in , 1 in
UV 7 out of 12
Pollen 4.80 out of 12
Air Quality Not available.
Flu Activity Not available.
METAR KEVW 231853Z AUTO 24014KT 10SM FEW055 21/06 A3031 RMK AO2 SLP180 T02060056

More Conditions Fewer Conditions

Pressure 30.06 in
Visibility 10.0 miles
Clouds Few 5500 ft
Dew Point 45 °F
Humidity 48%
Rainfall 0.00 in
Snow Depth 0 in , 0 in , 1 in
UV 7 out of 12
Pollen 4.80 out of 12
Air Quality Not available.
Flu Activity Not available.
METAR KEVW 231853Z AUTO 24014KT 10SM FEW055 21/06 A3031 RMK AO2 SLP180 T02060056

More Conditions Fewer Conditions

10-Day Weather Forecast

Almanac

Astronomy

Sep. 23, 2014 Rise Set
Actual Time 7:12 AM MDT 7:19 PM MDT
Civil Twilight 6:44 AM MDT 7:46 PM MDT
Nautical Twilight 6:12 AM MDT 8:18 PM MDT
Astronomical Twilight 5:39 AM MDT 8:51 PM MDT
Moon 6:40 AM MDT 6:59 PM MDT
Length of Visible Light 13h 01m
Length of Day
12h 06m
Tomorrow will be 2m 44s shorter.
Waning Crescent, 0% of the Moon is Illuminated
Today
Waning Crescent
Sep 24
New
Oct 1
First Quarter
Oct 8
Full
Oct 15
Last Quarter

Today's Extremes

State Highs State Lows

Community

WunderPhotos

Upload Photos

1,755,783 photos uploaded!

Nearby

Snow Depth

Station Depth Elevation
Cole Canyon 0 in 5910 ft
Middle Powder 0 in 7760 ft
North French Creek 1 in 10130 ft
Hams Fork 0 in 7840 ft
Kendall R.S. 1 in 7740 ft

Earthquake Activity

City Distance Mag. Time & Date
No recent earthquake activity has been reported nearby.
Minimum magnitude displayed is 2.5.

Coastal Water Temperatures

Place Temperature
No Stations Reporting

Nearby Weather Stations